createdAt,value
2023-04-11T00:02:27.777Z,100.00
2023-04-11T00:05:00.321Z,100.00
2023-04-11T00:07:33.345Z,100.00
2023-04-11T00:10:04.851Z,100.00
2023-04-11T00:12:36.290Z,100.00
2023-04-11T00:15:09.458Z,100.00
2023-04-11T00:17:40.860Z,100.00
2023-04-11T00:20:12.430Z,100.00
2023-04-11T00:22:44.966Z,100.00
2023-04-11T00:25:16.390Z,100.00
2023-04-11T00:27:48.119Z,100.00
2023-04-11T00:30:18.951Z,100.00
2023-04-11T00:32:51.119Z,100.00
2023-04-11T00:35:22.454Z,100.00
2023-04-11T00:38:00.721Z,100.00
2023-04-11T00:40:32.825Z,100.00
2023-04-11T00:43:03.978Z,100.00
2023-04-11T00:45:34.689Z,100.00
2023-04-11T00:48:06.107Z,100.00
2023-04-11T00:50:40.640Z,100.00
2023-04-11T00:53:15.584Z,100.00
2023-04-11T00:55:46.921Z,100.00
2023-04-11T00:58:18.299Z,100.00
2023-04-11T01:00:51.142Z,100.00
2023-04-11T01:03:23.275Z,100.00
2023-04-11T01:05:55.412Z,100.00
2023-04-11T01:08:27.190Z,90.94
2023-04-11T01:10:58.662Z,92.68
2023-04-11T01:13:29.361Z,94.97
2023-04-11T01:16:00.712Z,95.42
2023-04-11T01:18:32.082Z,100.00
2023-04-11T01:21:03.002Z,100.00
2023-04-11T01:23:35.841Z,100.00
2023-04-11T01:26:07.534Z,100.00
2023-04-11T01:28:39.032Z,100.00
2023-04-11T01:31:10.421Z,100.00
2023-04-11T01:33:41.507Z,93.89
2023-04-11T01:36:12.487Z,93.06
2023-04-11T01:38:43.945Z,86.24
2023-04-11T01:41:15.935Z,88.81
2023-04-11T01:43:47.194Z,86.03
2023-04-11T01:46:18.828Z,83.56
2023-04-11T01:48:56.016Z,81.97
2023-04-11T01:51:27.099Z,77.37
2023-04-11T01:53:58.828Z,88.83
2023-04-11T01:56:30.380Z,81.47
2023-04-11T01:59:01.064Z,81.38
2023-04-11T02:01:33.396Z,93.42
2023-04-11T02:04:05.078Z,100.00
2023-04-11T02:06:36.611Z,100.00
2023-04-11T02:09:08.414Z,100.00
2023-04-11T02:11:39.568Z,100.00
2023-04-11T02:14:11.865Z,100.00
2023-04-11T02:17:03.457Z,100.00
2023-04-11T02:19:35.970Z,98.53
2023-04-11T02:22:07.516Z,99.65
2023-04-11T02:24:38.708Z,99.45
2023-04-11T02:27:09.746Z,96.88
2023-04-11T02:29:40.518Z,95.98
2023-04-11T02:32:12.538Z,92.93
2023-04-11T02:34:44.205Z,99.44
2023-04-11T02:37:15.624Z,93.44
2023-04-11T02:39:46.898Z,97.22
2023-04-11T02:42:17.616Z,95.25
2023-04-11T02:44:50.684Z,98.66
2023-04-11T02:47:22.992Z,99.09
2023-04-11T02:49:54.351Z,98.61
2023-04-11T02:52:34.979Z,99.85
2023-04-11T02:55:06.837Z,99.76
2023-04-11T02:57:38.668Z,100.00
2023-04-11T03:00:13.201Z,100.00
2023-04-11T03:03:00.547Z,100.00
2023-04-11T03:05:32.827Z,100.00
2023-04-11T03:08:03.766Z,100.00
2023-04-11T03:10:37.356Z,100.00
2023-04-11T03:13:09.416Z,100.00
2023-04-11T03:15:40.224Z,100.00
2023-04-11T03:18:13.475Z,100.00
2023-04-11T03:20:48.258Z,100.00
2023-04-11T03:23:20.699Z,100.00
2023-04-11T03:25:53.474Z,100.00
2023-04-11T03:28:24.802Z,100.00
2023-04-11T03:30:56.892Z,100.00
2023-04-11T03:33:28.755Z,100.00
2023-04-11T03:36:00.374Z,100.00
2023-04-11T03:38:31.107Z,100.00
2023-04-11T03:41:02.159Z,100.00
2023-04-11T03:43:33.566Z,100.00
2023-04-11T03:46:05.360Z,100.00
2023-04-11T03:48:48.473Z,100.00
2023-04-11T03:51:21.731Z,100.00
2023-04-11T03:53:59.827Z,100.00
2023-04-11T03:56:38.619Z,100.00
2023-04-11T03:59:12.732Z,100.00
2023-04-11T04:01:54.614Z,100.00
2023-04-11T04:04:26.615Z,100.00
2023-04-11T04:07:11.448Z,100.00
2023-04-11T04:09:46.402Z,100.00
2023-04-11T04:12:21.563Z,100.00
2023-04-11T04:15:16.415Z,100.00
2023-04-11T04:17:51.203Z,100.00
2023-04-11T04:20:44.397Z,100.00
2023-04-11T04:23:19.535Z,100.00
2023-04-11T04:26:09.469Z,100.00
2023-04-11T04:28:42.308Z,100.00
2023-04-11T04:31:14.692Z,100.00
2023-04-11T04:33:46.208Z,100.00
2023-04-11T04:36:26.488Z,100.00
2023-04-11T04:39:03.580Z,100.00
2023-04-11T04:41:40.922Z,100.00
2023-04-11T04:44:12.797Z,100.00
2023-04-11T04:46:50.055Z,100.00
2023-04-11T04:49:21.205Z,100.00
2023-04-11T04:51:52.646Z,100.00
2023-04-11T04:54:25.292Z,100.00
2023-04-11T04:56:57.144Z,100.00
2023-04-11T04:59:29.474Z,100.00
2023-04-11T05:02:11.125Z,100.00
2023-04-11T05:04:44.025Z,100.00
2023-04-11T05:07:18.269Z,100.00
2023-04-11T05:09:53.716Z,100.00
2023-04-11T05:12:28.745Z,100.00
2023-04-11T05:15:05.941Z,100.00
2023-04-11T05:17:38.397Z,100.00
2023-04-11T05:20:10.481Z,100.00
2023-04-11T05:22:43.718Z,100.00
2023-04-11T05:25:15.279Z,100.00
2023-04-11T05:27:47.062Z,100.00
2023-04-11T05:30:18.577Z,100.00
2023-04-11T05:32:51.747Z,100.00
2023-04-11T05:35:23.655Z,100.00
2023-04-11T05:37:57.708Z,100.00
2023-04-11T05:40:29.121Z,100.00
2023-04-11T05:43:02.826Z,100.00
2023-04-11T05:45:36.043Z,100.00
2023-04-11T05:48:09.461Z,100.00
2023-04-11T05:50:41.133Z,100.00
2023-04-11T05:53:12.256Z,100.00
2023-04-11T05:55:43.512Z,100.00
2023-04-11T05:58:14.642Z,100.00
2023-04-11T06:00:47.397Z,100.00
2023-04-11T06:03:18.963Z,100.00
2023-04-11T06:05:49.605Z,100.00
2023-04-11T06:08:20.899Z,100.00
2023-04-11T06:10:52.101Z,100.00
2023-04-11T06:13:23.858Z,100.00
2023-04-11T06:15:55.045Z,100.00
2023-04-11T06:18:26.657Z,100.00
2023-04-11T06:20:57.596Z,100.00
2023-04-11T06:23:28.738Z,100.00
2023-04-11T06:25:59.738Z,100.00
2023-04-11T06:28:30.946Z,100.00
2023-04-11T06:31:02.570Z,100.00
2023-04-11T06:33:33.532Z,100.00
2023-04-11T06:36:06.081Z,100.00
2023-04-11T06:38:38.118Z,100.00
2023-04-11T06:41:09.602Z,100.00
2023-04-11T06:43:41.008Z,100.00
2023-04-11T06:46:13.648Z,100.00
2023-04-11T06:48:45.078Z,100.00
2023-04-11T06:51:16.693Z,100.00
2023-04-11T06:53:48.211Z,100.00
2023-04-11T06:56:19.173Z,100.00
2023-04-11T06:58:50.459Z,100.00
2023-04-11T07:01:22.787Z,100.00
2023-04-11T07:03:57.638Z,100.00
2023-04-11T07:06:29.007Z,100.00
2023-04-11T07:09:02.819Z,100.00
2023-04-11T07:11:34.895Z,100.00
2023-04-11T07:14:06.984Z,100.00
2023-04-11T07:16:37.602Z,100.00
2023-04-11T07:19:09.372Z,100.00
2023-04-11T07:21:41.349Z,100.00
2023-04-11T07:24:14.814Z,100.00
2023-04-11T07:26:47.777Z,100.00
2023-04-11T07:29:19.753Z,100.00
2023-04-11T07:31:52.043Z,100.00
2023-04-11T07:34:23.043Z,100.00
2023-04-11T07:36:54.752Z,100.00
2023-04-11T07:39:25.683Z,100.00
2023-04-11T07:41:57.865Z,100.00
2023-04-11T07:44:28.954Z,100.00
2023-04-11T07:47:00.635Z,100.00
2023-04-11T07:49:31.939Z,100.00
2023-04-11T07:52:03.132Z,100.00
2023-04-11T07:54:34.989Z,100.00
2023-04-11T07:57:06.533Z,100.00
2023-04-11T07:59:37.642Z,100.00
2023-04-11T08:02:09.624Z,100.00
2023-04-11T08:04:41.003Z,100.00
2023-04-11T08:07:12.983Z,100.00
2023-04-11T08:09:44.519Z,100.00
2023-04-11T08:12:15.865Z,100.00
2023-04-11T08:14:48.154Z,100.00
2023-04-11T08:17:27.494Z,100.00
2023-04-11T08:20:02.079Z,100.00
2023-04-11T08:22:36.687Z,100.00
2023-04-11T08:25:10.465Z,100.00
2023-04-11T08:27:43.416Z,100.00
2023-04-11T08:30:14.330Z,100.00
2023-04-11T08:32:47.544Z,100.00
2023-04-11T08:35:19.205Z,100.00
2023-04-11T08:37:51.175Z,100.00
2023-04-11T08:40:23.754Z,100.00
2023-04-11T08:43:05.971Z,100.00
2023-04-11T08:45:37.435Z,100.00
2023-04-11T08:48:11.978Z,100.00
2023-04-11T08:50:46.272Z,100.00
2023-04-11T08:53:18.041Z,100.00
2023-04-11T08:55:50.997Z,100.00
2023-04-11T08:58:22.885Z,100.00
2023-04-11T09:00:54.454Z,100.00
2023-04-11T09:03:25.997Z,100.00
2023-04-11T09:05:58.831Z,100.00
2023-04-11T09:08:41.018Z,100.00
2023-04-11T09:11:12.606Z,100.00
2023-04-11T09:13:44.424Z,100.00
2023-04-11T09:16:17.873Z,100.00
2023-04-11T09:18:49.552Z,100.00
2023-04-11T09:21:21.088Z,100.00
2023-04-11T09:23:52.594Z,100.00
2023-04-11T09:26:31.368Z,100.00
2023-04-11T09:29:02.904Z,100.00
2023-04-11T09:31:43.313Z,100.00
2023-04-11T09:34:15.455Z,100.00
2023-04-11T09:36:57.438Z,100.00
2023-04-11T09:39:30.957Z,100.00
2023-04-11T09:42:04.566Z,100.00
2023-04-11T09:44:39.916Z,100.00
2023-04-11T09:47:11.707Z,100.00
2023-04-11T09:49:44.105Z,100.00
2023-04-11T09:52:15.493Z,100.00
2023-04-11T09:54:47.268Z,100.00
2023-04-11T09:57:18.865Z,100.00
2023-04-11T09:59:49.470Z,100.00
2023-04-11T10:02:20.690Z,100.00
2023-04-11T10:04:53.008Z,100.00
2023-04-11T10:07:24.989Z,100.00
2023-04-11T10:09:55.520Z,100.00
2023-04-11T10:12:34.132Z,100.00
2023-04-11T10:15:12.465Z,100.00
2023-04-11T10:17:44.593Z,100.00
2023-04-11T10:20:33.856Z,100.00
2023-04-11T10:23:06.650Z,100.00
2023-04-11T10:26:01.450Z,100.00
2023-04-11T10:28:40.781Z,100.00
2023-04-11T10:31:18.497Z,100.00
2023-04-11T10:34:18.912Z,100.00
2023-04-11T10:37:09.198Z,100.00
2023-04-11T10:40:18.348Z,100.00
2023-04-11T10:42:50.750Z,100.00
2023-04-11T10:45:29.767Z,100.00
2023-04-11T10:48:14.843Z,100.00
2023-04-11T10:50:46.937Z,100.00
2023-04-11T10:53:38.912Z,100.00
2023-04-11T10:56:10.367Z,100.00
2023-04-11T10:58:41.549Z,100.00
2023-04-11T11:01:32.086Z,100.00
2023-04-11T11:04:08.732Z,100.00
2023-04-11T11:06:47.437Z,100.00
2023-04-11T11:09:26.617Z,100.00
2023-04-11T11:12:17.314Z,100.00
2023-04-11T11:14:49.578Z,100.00
2023-04-11T11:17:21.061Z,100.00
2023-04-11T11:19:52.445Z,100.00
2023-04-11T11:22:27.106Z,100.00
2023-04-11T11:25:12.185Z,100.00
2023-04-11T11:27:43.719Z,100.00
2023-04-11T11:30:15.889Z,100.00
2023-04-11T11:32:47.190Z,100.00
2023-04-11T11:35:18.384Z,100.00
2023-04-11T11:37:49.550Z,100.00
2023-04-11T11:40:23.499Z,100.00
2023-04-11T11:42:55.125Z,100.00
2023-04-11T11:47:56.997Z,100.00
2023-04-11T11:50:35.553Z,100.00
2023-04-11T11:53:17.893Z,100.00
2023-04-11T11:55:48.947Z,100.00
2023-04-11T11:58:21.277Z,100.00
2023-04-11T12:00:53.632Z,100.00
2023-04-11T12:03:26.544Z,100.00
2023-04-11T12:05:59.653Z,100.00
2023-04-11T12:08:35.984Z,100.00
2023-04-11T12:11:14.479Z,100.00
2023-04-11T12:13:47.326Z,100.00
2023-04-11T12:16:18.476Z,100.00
2023-04-11T12:18:49.940Z,100.00
2023-04-11T12:21:22.238Z,100.00
2023-04-11T12:23:53.212Z,100.00
2023-04-11T12:26:26.579Z,100.00
2023-04-11T12:28:57.934Z,100.00
2023-04-11T12:31:29.755Z,100.00
2023-04-11T12:34:00.762Z,100.00
2023-04-11T12:39:04.151Z,100.00
2023-04-11T12:41:35.815Z,100.00
2023-04-11T12:44:07.105Z,100.00
2023-04-11T12:46:38.884Z,100.00
2023-04-11T12:49:10.146Z,100.00
2023-04-11T12:51:41.414Z,100.00
2023-04-11T12:54:12.788Z,100.00
2023-04-11T12:56:43.865Z,100.00
2023-04-11T12:59:14.970Z,100.00
2023-04-11T13:01:48.164Z,100.00
2023-04-11T13:04:21.101Z,100.00
2023-04-11T13:06:55.512Z,100.00
2023-04-11T13:09:26.820Z,100.00
2023-04-11T13:11:58.251Z,100.00
2023-04-11T13:14:29.680Z,100.00
2023-04-11T13:17:00.737Z,100.00
2023-04-11T13:19:32.510Z,100.00
2023-04-11T13:22:05.303Z,100.00
2023-04-11T13:24:36.524Z,100.00
2023-04-11T13:27:07.745Z,100.00
2023-04-11T13:29:39.170Z,100.00
2023-04-11T13:32:10.390Z,100.00
2023-04-11T13:34:42.189Z,100.00
2023-04-11T13:37:13.855Z,100.00
2023-04-11T13:39:45.558Z,100.00
2023-04-11T13:42:16.812Z,100.00
2023-04-11T13:44:48.357Z,100.00
2023-04-11T13:47:18.987Z,100.00
2023-04-11T13:49:50.199Z,100.00
2023-04-11T13:52:23.727Z,100.00
2023-04-11T13:54:54.936Z,100.00
2023-04-11T13:57:26.010Z,100.00
2023-04-11T13:59:57.275Z,100.00
2023-04-11T14:02:29.586Z,100.00
2023-04-11T14:05:00.547Z,100.00
2023-04-11T14:07:33.615Z,100.00
2023-04-11T14:10:04.583Z,100.00
2023-04-11T14:12:35.532Z,100.00
2023-04-11T14:15:09.299Z,100.00
2023-04-11T14:17:40.470Z,100.00
2023-04-11T14:20:13.140Z,100.00
2023-04-11T14:22:45.632Z,100.00
2023-04-11T14:25:17.194Z,100.00
2023-04-11T14:27:47.895Z,100.00
2023-04-11T14:30:19.176Z,100.00
2023-04-11T14:32:50.503Z,100.00
2023-04-11T14:35:21.940Z,100.00
2023-04-11T14:37:53.092Z,100.00
2023-04-11T14:40:24.269Z,100.00
2023-04-11T14:42:55.466Z,100.00
2023-04-11T14:45:26.488Z,100.00
2023-04-11T14:47:58.186Z,100.00
2023-04-11T14:50:29.524Z,100.00
2023-04-11T14:53:00.758Z,100.00
2023-04-11T14:55:32.290Z,100.00
2023-04-11T14:58:05.515Z,100.00
2023-04-11T15:00:37.309Z,100.00
2023-04-11T15:03:09.077Z,100.00
2023-04-11T15:05:40.818Z,100.00
2023-04-11T15:08:11.956Z,100.00
2023-04-11T15:10:43.271Z,100.00
2023-04-11T15:13:14.358Z,100.00
2023-04-11T15:15:45.660Z,100.00
2023-04-11T15:18:30.556Z,100.00
2023-04-11T15:21:04.788Z,100.00
2023-04-11T15:23:36.446Z,100.00
2023-04-11T15:26:08.219Z,100.00
2023-04-11T15:28:41.011Z,100.00
2023-04-11T15:31:12.024Z,100.00
2023-04-11T15:33:43.982Z,100.00
2023-04-11T15:36:14.575Z,100.00
2023-04-11T15:38:47.162Z,100.00
2023-04-11T15:41:18.844Z,100.00
2023-04-11T15:43:49.984Z,100.00
2023-04-11T15:46:20.939Z,100.00
2023-04-11T15:48:52.635Z,100.00
2023-04-11T15:51:24.597Z,100.00
2023-04-11T15:53:56.237Z,100.00
2023-04-11T15:56:29.565Z,100.00
2023-04-11T15:59:00.789Z,100.00
2023-04-11T16:01:32.492Z,100.00
2023-04-11T16:04:04.328Z,100.00
2023-04-11T16:06:35.305Z,100.00
2023-04-11T16:09:06.874Z,100.00
2023-04-11T16:11:40.150Z,100.00
2023-04-11T16:14:12.679Z,100.00
2023-04-11T16:16:45.180Z,100.00
2023-04-11T16:19:16.935Z,100.00
2023-04-11T16:21:48.194Z,100.00
2023-04-11T16:24:22.945Z,100.00
2023-04-11T16:26:54.399Z,100.00
2023-04-11T16:29:26.470Z,100.00
2023-04-11T16:31:57.875Z,100.00
2023-04-11T16:34:28.714Z,100.00
2023-04-11T16:36:59.779Z,100.00
2023-04-11T16:39:31.532Z,100.00
2023-04-11T16:42:03.194Z,100.00
2023-04-11T16:44:34.705Z,100.00
2023-04-11T16:47:05.978Z,100.00
2023-04-11T16:49:37.284Z,100.00
2023-04-11T16:52:08.738Z,100.00
2023-04-11T16:54:39.968Z,100.00
2023-04-11T16:57:11.016Z,100.00
2023-04-11T16:59:42.890Z,100.00
2023-04-11T17:02:14.111Z,100.00
2023-04-11T17:04:49.380Z,100.00
2023-04-11T17:07:20.395Z,100.00
2023-04-11T17:09:51.967Z,100.00
2023-04-11T17:12:22.989Z,100.00
2023-04-11T17:14:54.129Z,100.00
2023-04-11T17:17:25.650Z,100.00
2023-04-11T17:19:57.151Z,100.00
2023-04-11T17:22:28.419Z,100.00
2023-04-11T17:25:00.223Z,100.00
2023-04-11T17:27:33.520Z,100.00
2023-04-11T17:30:05.589Z,100.00
2023-04-11T17:32:38.501Z,100.00
2023-04-11T17:35:10.315Z,100.00
2023-04-11T17:37:41.172Z,100.00
2023-04-11T17:40:15.998Z,100.00
2023-04-11T17:42:47.598Z,100.00
2023-04-11T17:45:19.259Z,100.00
2023-04-11T17:47:50.231Z,100.00
2023-04-11T17:50:21.747Z,100.00
2023-04-11T17:52:53.140Z,100.00
2023-04-11T17:55:25.128Z,100.00
2023-04-11T17:57:56.605Z,100.00
2023-04-11T18:00:27.970Z,100.00
2023-04-11T18:02:59.845Z,100.00
2023-04-11T18:05:32.889Z,100.00
2023-04-11T18:08:05.179Z,100.00
2023-04-11T18:10:36.752Z,100.00
2023-04-11T18:13:08.429Z,100.00
2023-04-11T18:15:39.666Z,100.00
2023-04-11T18:18:12.410Z,100.00
2023-04-11T18:20:43.343Z,100.00
2023-04-11T18:23:14.503Z,100.00
2023-04-11T18:25:46.191Z,100.00
2023-04-11T18:28:17.145Z,100.00
2023-04-11T18:30:49.799Z,100.00
2023-04-11T18:33:21.122Z,100.00
2023-04-11T18:35:53.178Z,100.00
2023-04-11T18:38:24.399Z,100.00
2023-04-11T18:40:56.429Z,100.00
2023-04-11T18:43:28.210Z,100.00
2023-04-11T18:45:59.393Z,100.00
2023-04-11T18:48:30.852Z,100.00
2023-04-11T18:51:03.028Z,100.00
2023-04-11T18:53:36.234Z,100.00
2023-04-11T18:56:08.653Z,100.00
2023-04-11T18:58:45.626Z,100.00
2023-04-11T19:01:18.725Z,100.00
2023-04-11T19:03:50.145Z,100.00
2023-04-11T19:06:21.369Z,100.00
2023-04-11T19:08:53.611Z,100.00
2023-04-11T19:11:24.848Z,100.00
2023-04-11T19:13:56.746Z,100.00
2023-04-11T19:16:28.775Z,100.00
2023-04-11T19:19:00.760Z,100.00
2023-04-11T19:21:32.455Z,100.00
2023-04-11T19:24:03.720Z,100.00
2023-04-11T19:26:35.416Z,100.00
2023-04-11T19:29:06.616Z,100.00
2023-04-11T19:31:37.694Z,100.00
2023-04-11T19:34:09.112Z,100.00
2023-04-11T19:36:40.231Z,100.00
2023-04-11T19:39:12.391Z,100.00
2023-04-11T19:41:47.805Z,100.00
2023-04-11T19:44:19.221Z,100.00
2023-04-11T19:46:50.449Z,100.00
2023-04-11T19:49:21.429Z,100.00
2023-04-11T19:51:52.928Z,100.00
2023-04-11T19:54:24.776Z,100.00
2023-04-11T19:56:56.182Z,100.00
2023-04-11T19:59:27.248Z,100.00
2023-04-11T20:02:00.836Z,100.00
2023-04-11T20:04:32.278Z,100.00
2023-04-11T20:07:04.821Z,100.00
2023-04-11T20:09:36.116Z,100.00
2023-04-11T20:12:10.399Z,100.00
2023-04-11T20:14:42.393Z,100.00
2023-04-11T20:17:13.862Z,100.00
2023-04-11T20:19:46.448Z,100.00
2023-04-11T20:22:20.005Z,100.00
2023-04-11T20:24:52.698Z,100.00
2023-04-11T20:27:27.112Z,100.00
2023-04-11T20:29:58.488Z,100.00
2023-04-11T20:32:29.591Z,100.00
2023-04-11T20:35:03.053Z,100.00
2023-04-11T20:37:36.498Z,100.00
2023-04-11T20:40:08.982Z,100.00
2023-04-11T20:42:43.940Z,100.00
2023-04-11T20:45:19.488Z,100.00
2023-04-11T20:47:51.624Z,100.00
2023-04-11T20:50:23.171Z,100.00
2023-04-11T20:52:54.580Z,100.00
2023-04-11T20:55:26.719Z,100.00
2023-04-11T20:57:57.279Z,100.00
2023-04-11T21:00:28.847Z,100.00
2023-04-11T21:03:00.476Z,100.00
2023-04-11T21:05:31.339Z,100.00
2023-04-11T21:08:03.529Z,100.00
2023-04-11T21:10:33.954Z,100.00
2023-04-11T21:13:04.955Z,100.00
2023-04-11T21:15:39.069Z,100.00
2023-04-11T21:18:10.371Z,100.00
2023-04-11T21:20:44.278Z,100.00
2023-04-11T21:23:15.509Z,100.00
2023-04-11T21:25:47.103Z,100.00
2023-04-11T21:28:19.054Z,100.00
2023-04-11T21:30:50.618Z,100.00
2023-04-11T21:33:21.744Z,100.00
2023-04-11T21:35:56.762Z,100.00
2023-04-11T21:38:28.048Z,100.00
2023-04-11T21:40:59.570Z,100.00
2023-04-11T21:43:30.150Z,100.00
2023-04-11T21:46:01.174Z,100.00
2023-04-11T21:48:32.179Z,100.00
2023-04-11T21:51:05.387Z,100.00
2023-04-11T21:53:37.886Z,100.00
2023-04-11T21:56:10.093Z,100.00
2023-04-11T21:58:41.113Z,100.00
2023-04-11T22:01:13.203Z,100.00
2023-04-11T22:03:44.347Z,100.00
2023-04-11T22:06:15.821Z,100.00
2023-04-11T22:08:51.862Z,100.00
2023-04-11T22:11:23.337Z,100.00
2023-04-11T22:13:54.367Z,100.00
2023-04-11T22:16:31.935Z,100.00
2023-04-11T22:19:03.421Z,100.00
2023-04-11T22:21:34.573Z,100.00
2023-04-11T22:24:05.829Z,100.00
2023-04-11T22:26:37.215Z,100.00
2023-04-11T22:29:10.529Z,100.00
2023-04-11T22:31:41.678Z,100.00
2023-04-11T22:34:13.601Z,100.00
2023-04-11T22:36:44.848Z,100.00
2023-04-11T22:39:16.730Z,100.00
2023-04-11T22:41:49.087Z,100.00
2023-04-11T22:44:20.707Z,100.00
2023-04-11T22:47:07.556Z,100.00
2023-04-11T22:49:41.596Z,100.00
2023-04-11T22:52:16.262Z,100.00
2023-04-11T22:54:49.563Z,100.00
2023-04-11T22:57:21.186Z,100.00
2023-04-11T22:59:52.821Z,100.00
2023-04-11T23:02:25.981Z,100.00
2023-04-11T23:04:57.735Z,100.00
2023-04-11T23:07:29.903Z,100.00
2023-04-11T23:10:07.137Z,100.00
2023-04-11T23:12:38.695Z,100.00
2023-04-11T23:15:09.904Z,100.00
2023-04-11T23:17:41.483Z,100.00
2023-04-11T23:20:14.549Z,100.00
2023-04-11T23:22:46.499Z,100.00
2023-04-11T23:25:17.125Z,100.00
2023-04-11T23:27:49.000Z,100.00
2023-04-11T23:30:21.471Z,100.00
2023-04-11T23:32:53.307Z,100.00
2023-04-11T23:35:25.231Z,100.00
2023-04-11T23:37:56.670Z,100.00
2023-04-11T23:40:28.008Z,100.00
2023-04-11T23:42:59.561Z,100.00
2023-04-11T23:45:30.791Z,100.00
2023-04-11T23:48:02.732Z,100.00
2023-04-11T23:50:33.896Z,100.00
2023-04-11T23:53:04.621Z,100.00
2023-04-11T23:55:36.585Z,100.00
2023-04-11T23:58:08.019Z,100.00
